Time;durP1;ratioP1;P1;durP2;ratioP2;P2;SDS_P1;SDS_P2;PMS_P1;PMS_P2;Temp;Humidity;BMP_temperature;BMP_pressure;BME280_temperature;BME280_humidity;BME280_pressure;Samples;Min_cycle;Max_cycle;Signal;HPM_P1;HPM_P2
2022/12/19 00:01:15;;;;;;;;;;;;;;;;;;5031380;28;19921;-59
2022/12/19 00:03:41;;;;;;;;;;;;;;;;;;5035263;28;19913;-59
2022/12/19 00:06:08;;;;;;;;;;;;;;;;;;5033737;28;19998;-59
2022/12/19 00:08:34;;;;;;;;;;;;;;;;;;5034936;28;20430;-59
2022/12/19 00:11:00;;;;;;;;;;;;;;;;;;5032136;28;19956;-59
2022/12/19 00:13:26;;;;;;;;;;;;;;;;;;5030441;28;19964;-59
2022/12/19 00:15:52;;;;;;;;;;;;;;;;;;5034502;28;19956;-59
2022/12/19 00:18:18;;;;;;;;;;;;;;;;;;5034611;28;19917;-59
2022/12/19 00:20:43;;;;;;;;;;;;;;;;;;5034190;28;19948;-57
2022/12/19 00:23:09;;;;;;;;;;;;;;;;;;5033424;28;19923;-58
2022/12/19 00:25:35;;;;;;;;;;;;;;;;;;5031033;28;19913;-58
2022/12/19 00:28:04;;;;;;;;;;;;;;;;;;5032791;28;19968;-59
2022/12/19 00:30:30;;;;;;;;;;;;;;;;;;5033676;28;19913;-59
2022/12/19 00:32:56;;;;;;;;;;;;;;;;;;5034904;28;20325;-59
2022/12/19 00:35:22;;;;;;;;;;;;;;;;;;5032033;28;19913;-59
2022/12/19 00:37:48;;;;;;;;;;;;;;;;;;5033795;28;19913;-59
2022/12/19 00:40:14;;;;;;;;;;;;;;;;;;5032968;28;19962;-59
2022/12/19 00:42:40;;;;;;;;;;;;;;;;;;5034186;28;19956;-59
2022/12/19 00:45:05;;;;;;;;;;;;;;;;;;5032261;28;20033;-59
2022/12/19 00:47:31;;;;;;;;;;;;;;;;;;5033560;28;19921;-59
2022/12/19 00:49:57;;;;;;;;;;;;;;;;;;5032130;28;19936;-59
2022/12/19 00:52:23;;;;;;;;;;;;;;;;;;5034571;28;19963;-59
2022/12/19 00:54:49;;;;;;;;;;;;;;;;;;5033383;28;19917;-59
2022/12/19 00:57:15;;;;;;;;;;;;;;;;;;5031897;28;19952;-59
2022/12/19 00:59:41;;;;;;;;;;;;;;;;;;5033717;28;19920;-58
2022/12/19 01:02:07;;;;;;;;;;;;;;;;;;5030651;28;20349;-59
2022/12/19 01:04:33;;;;;;;;;;;;;;;;;;5032688;28;20008;-59
2022/12/19 01:06:58;;;;;;;;;;;;;;;;;;5034305;28;20287;-59
2022/12/19 01:09:24;;;;;;;;;;;;;;;;;;5032662;28;19925;-59
2022/12/19 01:14:35;;;;;;;;;;;;;;;;;;5032600;28;19928;-59
2022/12/19 01:17:01;;;;;;;;;;;;;;;;;;5034216;28;20273;-59
2022/12/19 01:19:27;;;;;;;;;;;;;;;;;;5013873;28;19948;-59
2022/12/19 01:21:53;;;;;;;;;;;;;;;;;;5031922;28;19914;-59
2022/12/19 01:24:19;;;;;;;;;;;;;;;;;;5033420;28;20276;-59
2022/12/19 01:26:45;;;;;;;;;;;;;;;;;;5030623;28;19971;-58
2022/12/19 01:29:11;;;;;;;;;;;;;;;;;;5032809;28;19986;-57
2022/12/19 01:31:37;;;;;;;;;;;;;;;;;;5032095;28;19964;-59
2022/12/19 01:34:02;;;;;;;;;;;;;;;;;;5032355;28;19945;-59
2022/12/19 01:36:28;;;;;;;;;;;;;;;;;;5033288;28;19917;-59
2022/12/19 01:38:54;;;;;;;;;;;;;;;;;;5033210;28;19917;-59
2022/12/19 01:41:20;;;;;;;;;;;;;;;;;;5031707;28;19963;-58
2022/12/19 01:43:46;;;;;;;;;;;;;;;;;;5031497;28;20276;-59
2022/12/19 01:46:12;;;;;;;;;;;;;;;;;;5032970;28;19960;-59
2022/12/19 01:48:38;;;;;;;;;;;;;;;;;;5030522;28;19917;-59
2022/12/19 01:51:04;;;;;;;;;;;;;;;;;;5031584;28;19974;-59
2022/12/19 01:53:30;;;;;;;;;;;;;;;;;;5032393;28;19913;-59
2022/12/19 01:55:56;;;;;;;;;;;;;;;;;;5029360;28;20006;-59
2022/12/19 01:58:21;;;;;;;;;;;;;;;;;;5016002;28;20007;-59
2022/12/19 02:00:47;;;;;;;;;;;;;;;;;;5030728;28;19948;-59
2022/12/19 02:03:13;;;;;;;;;;;;;;;;;;5032814;28;19953;-59
2022/12/19 02:05:39;;;;;;;;;;;;;;;;;;5031061;28;20424;-58
2022/12/19 02:08:05;;;;;;;;;;;;;;;;;;5031933;28;19928;-59
2022/12/19 02:10:31;;;;;;;;;;;;;;;;;;5030574;28;20309;-58
2022/12/19 02:12:57;;;;;;;;;;;;;;;;;;5031445;28;20021;-59
2022/12/19 02:15:23;;;;;;;;;;;;;;;;;;5031190;28;19986;-59
2022/12/19 02:17:49;;;;;;;;;;;;;;;;;;5031832;28;19921;-58
2022/12/19 02:20:14;;;;;;;;;;;;;;;;;;5030022;28;20007;-59
2022/12/19 02:22:40;;;;;;;;;;;;;;;;;;5030050;28;19931;-59
2022/12/19 02:25:06;;;;;;;;;;;;;;;;;;5026884;28;19967;-58
2022/12/19 02:27:32;;;;;;;;;;;;;;;;;;5031378;28;19956;-59
2022/12/19 02:29:58;;;;;;;;;;;;;;;;;;5031182;28;20288;-59
2022/12/19 02:32:24;;;;;;;;;;;;;;;;;;5030087;28;19951;-59
2022/12/19 02:34:50;;;;;;;;;;;;;;;;;;5030547;28;19913;-59
2022/12/19 02:37:16;;;;;;;;;;;;;;;;;;5030600;28;20438;-59
2022/12/19 02:39:42;;;;;;;;;;;;;;;;;;5030096;28;19913;-59
2022/12/19 02:42:08;;;;;;;;;;;;;;;;;;5030449;28;19968;-59
2022/12/19 02:44:33;;;;;;;;;;;;;;;;;;5014545;28;19956;-59
2022/12/19 02:46:59;;;;;;;;;;;;;;;;;;5030516;28;20004;-59
2022/12/19 02:49:26;;;;;;;;;;;;;;;;;;5031449;28;19913;-59
2022/12/19 02:51:52;;;;;;;;;;;;;;;;;;5031148;28;20296;-59
2022/12/19 02:54:18;;;;;;;;;;;;;;;;;;5030419;28;19920;-59
2022/12/19 02:56:44;;;;;;;;;;;;;;;;;;5030901;28;19999;-59
2022/12/19 02:59:10;;;;;;;;;;;;;;;;;;5028991;28;19917;-59
2022/12/19 03:01:37;;;;;;;;;;;;;;;;;;5030942;28;19952;-56
2022/12/19 03:04:02;;;;;;;;;;;;;;;;;;5031384;28;19920;-57
2022/12/19 03:06:28;;;;;;;;;;;;;;;;;;5017997;28;19952;-57
2022/12/19 03:08:54;;;;;;;;;;;;;;;;;;5031847;28;19928;-57
2022/12/19 03:11:20;;;;;;;;;;;;;;;;;;5035266;28;19917;-57
2022/12/19 03:13:46;;;;;;;;;;;;;;;;;;5036188;28;19921;-57
2022/12/19 03:16:12;;;;;;;;;;;;;;;;;;5034835;28;19920;-57
2022/12/19 03:18:38;;;;;;;;;;;;;;;;;;5034032;28;20007;-57
2022/12/19 03:21:04;;;;;;;;;;;;;;;;;;5034347;28;20373;-57
2022/12/19 03:23:29;;;;;;;;;;;;;;;;;;5035057;28;19974;-57
2022/12/19 03:25:55;;;;;;;;;;;;;;;;;;5033986;28;20345;-57
2022/12/19 03:28:21;;;;;;;;;;;;;;;;;;5034706;28;20000;-57
2022/12/19 03:30:47;;;;;;;;;;;;;;;;;;5035322;28;19924;-59
2022/12/19 03:33:13;;;;;;;;;;;;;;;;;;5031917;28;20357;-57
2022/12/19 03:35:39;;;;;;;;;;;;;;;;;;5033167;28;19919;-57
2022/12/19 03:38:05;;;;;;;;;;;;;;;;;;5031515;28;19960;-58
2022/12/19 03:40:31;;;;;;;;;;;;;;;;;;5034850;28;19988;-57
2022/12/19 03:43:09;;;;;;;;;;;;;;;;;;5035773;28;20008;-57
2022/12/19 03:45:35;;;;;;;;;;;;;;;;;;5035502;28;19917;-57
2022/12/19 03:48:01;;;;;;;;;;;;;;;;;;5032831;28;19952;-58
2022/12/19 03:50:27;;;;;;;;;;;;;;;;;;5033779;28;20006;-57
2022/12/19 03:52:53;;;;;;;;;;;;;;;;;;5033246;28;20091;-57
2022/12/19 03:55:19;;;;;;;;;;;;;;;;;;5035057;28;20377;-57
2022/12/19 03:57:45;;;;;;;;;;;;;;;;;;5032302;28;19928;-57
2022/12/19 04:00:11;;;;;;;;;;;;;;;;;;5034605;28;20336;-57
2022/12/19 04:02:37;;;;;;;;;;;;;;;;;;5034782;28;20008;-57
2022/12/19 04:05:03;;;;;;;;;;;;;;;;;;5033955;28;20004;-57
2022/12/19 04:07:29;;;;;;;;;;;;;;;;;;5034804;28;19921;-57
2022/12/19 04:09:55;;;;;;;;;;;;;;;;;;5033027;28;19976;-57
2022/12/19 04:12:21;;;;;;;;;;;;;;;;;;5012537;28;20008;-57
2022/12/19 04:14:47;;;;;;;;;;;;;;;;;;5031771;28;20321;-57
2022/12/19 04:17:12;;;;;;;;;;;;;;;;;;5034205;28;19913;-57
2022/12/19 04:19:38;;;;;;;;;;;;;;;;;;5033343;28;19917;-58
2022/12/19 04:22:04;;;;;;;;;;;;;;;;;;5034551;28;19959;-57
2022/12/19 04:24:30;;;;;;;;;;;;;;;;;;5034175;28;19959;-57
2022/12/19 04:26:56;;;;;;;;;;;;;;;;;;5029341;28;20019;-57
2022/12/19 04:29:22;;;;;;;;;;;;;;;;;;5032315;28;19978;-58
2022/12/19 04:31:48;;;;;;;;;;;;;;;;;;5031935;28;20032;-57
2022/12/19 04:34:14;;;;;;;;;;;;;;;;;;5032846;28;19913;-58
2022/12/19 04:36:40;;;;;;;;;;;;;;;;;;5031167;28;20015;-57
2022/12/19 04:39:05;;;;;;;;;;;;;;;;;;5033786;28;19924;-57
2022/12/19 04:41:31;;;;;;;;;;;;;;;;;;5032744;28;19914;-57
2022/12/19 04:43:57;;;;;;;;;;;;;;;;;;5033772;28;20363;-57
2022/12/19 04:46:23;;;;;;;;;;;;;;;;;;5033133;28;20498;-57
2022/12/19 04:48:49;;;;;;;;;;;;;;;;;;5032100;28;19948;-57
2022/12/19 04:51:15;;;;;;;;;;;;;;;;;;5033898;28;20003;-57
2022/12/19 04:53:41;;;;;;;;;;;;;;;;;;5034419;28;19966;-57
2022/12/19 04:56:07;;;;;;;;;;;;;;;;;;5032484;28;19952;-57
2022/12/19 04:58:33;;;;;;;;;;;;;;;;;;5031722;28;20032;-57
2022/12/19 05:00:59;;;;;;;;;;;;;;;;;;5032039;28;20341;-56
2022/12/19 05:03:24;;;;;;;;;;;;;;;;;;5019603;28;19921;-59
2022/12/19 05:05:50;;;;;;;;;;;;;;;;;;5030119;28;19960;-57
2022/12/19 05:08:16;;;;;;;;;;;;;;;;;;5029273;28;19920;-59
2022/12/19 05:10:42;;;;;;;;;;;;;;;;;;5029095;28;19919;-58
2022/12/19 05:13:08;;;;;;;;;;;;;;;;;;5029997;28;20400;-57
2022/12/19 05:15:34;;;;;;;;;;;;;;;;;;5031696;28;20264;-57
2022/12/19 05:18:00;;;;;;;;;;;;;;;;;;5023700;28;19909;-58
2022/12/19 05:20:26;;;;;;;;;;;;;;;;;;5028591;28;20442;-57
2022/12/19 05:22:52;;;;;;;;;;;;;;;;;;5030276;28;19966;-58
2022/12/19 05:25:17;;;;;;;;;;;;;;;;;;5030953;28;19913;-58
2022/12/19 05:27:43;;;;;;;;;;;;;;;;;;5030489;28;20015;-57
2022/12/19 05:30:09;;;;;;;;;;;;;;;;;;5029636;28;20250;-56
2022/12/19 05:32:35;;;;;;;;;;;;;;;;;;5028951;28;20410;-58
2022/12/19 05:35:01;;;;;;;;;;;;;;;;;;5031475;28;19925;-57
2022/12/19 05:37:27;;;;;;;;;;;;;;;;;;5031340;28;19913;-57
2022/12/19 05:39:53;;;;;;;;;;;;;;;;;;5031344;28;19962;-58
2022/12/19 05:42:19;;;;;;;;;;;;;;;;;;5029887;28;20344;-57
2022/12/19 05:44:45;;;;;;;;;;;;;;;;;;5030720;28;19978;-57
2022/12/19 05:47:11;;;;;;;;;;;;;;;;;;5030756;28;20678;-58
2022/12/19 05:49:39;;;;;;;;;;;;;;;;;;5030127;28;20014;-58
2022/12/19 05:52:05;;;;;;;;;;;;;;;;;;5027767;28;19943;-58
2022/12/19 05:54:31;;;;;;;;;;;;;;;;;;5024910;28;19913;-57
2022/12/19 05:56:57;;;;;;;;;;;;;;;;;;5027164;28;20232;-58
2022/12/19 05:59:23;;;;;;;;;;;;;;;;;;5031047;28;19924;-57
2022/12/19 06:01:49;;;;;;;;;;;;;;;;;;5026099;28;19963;-58
2022/12/19 06:04:15;;;;;;;;;;;;;;;;;;5022980;28;19916;-57
2022/12/19 06:06:41;;;;;;;;;;;;;;;;;;5027216;28;19990;-57
2022/12/19 06:09:07;;;;;;;;;;;;;;;;;;5016083;28;19920;-58
2022/12/19 06:11:33;;;;;;;;;;;;;;;;;;5027248;28;20003;-57
2022/12/19 06:13:59;;;;;;;;;;;;;;;;;;5028692;28;19976;-58
2022/12/19 06:16:26;;;;;;;;;;;;;;;;;;5030187;28;21557;-57
2022/12/19 06:18:52;;;;;;;;;;;;;;;;;;5022465;28;19967;-58
2022/12/19 06:21:18;;;;;;;;;;;;;;;;;;5028312;28;19949;-57
2022/12/19 06:23:44;;;;;;;;;;;;;;;;;;5029902;28;19952;-57
2022/12/19 06:26:10;;;;;;;;;;;;;;;;;;5030325;28;19924;-57
2022/12/19 06:28:36;;;;;;;;;;;;;;;;;;5031702;28;19915;-57
2022/12/19 06:31:02;;;;;;;;;;;;;;;;;;5030285;28;19956;-57
2022/12/19 06:33:28;;;;;;;;;;;;;;;;;;5031046;28;19952;-57
2022/12/19 06:35:54;;;;;;;;;;;;;;;;;;5029183;28;19920;-58
2022/12/19 06:38:20;;;;;;;;;;;;;;;;;;5029587;28;19948;-57
2022/12/19 06:43:30;;;;;;;;;;;;;;;;;;5029980;28;19964;-58
2022/12/19 06:45:56;;;;;;;;;;;;;;;;;;5031867;28;19909;-57
2022/12/19 06:48:22;;;;;;;;;;;;;;;;;;5028125;28;19917;-57
2022/12/19 06:50:48;;;;;;;;;;;;;;;;;;5030445;28;19991;-57
2022/12/19 06:53:14;;;;;;;;;;;;;;;;;;5030193;28;20288;-57
2022/12/19 06:55:40;;;;;;;;;;;;;;;;;;5026716;28;19917;-57
2022/12/19 06:58:06;;;;;;;;;;;;;;;;;;5031226;28;19923;-57
2022/12/19 07:00:35;;;;;;;;;;;;;;;;;;5028274;28;19956;-57
2022/12/19 07:03:00;;;;;;;;;;;;;;;;;;5027112;28;19917;-57
2022/12/19 07:05:28;;;;;;;;;;;;;;;;;;5028856;28;20008;-57
2022/12/19 07:07:53;;;;;;;;;;;;;;;;;;5030371;28;20252;-56
2022/12/19 07:10:19;;;;;;;;;;;;;;;;;;5027670;28;19960;-57
2022/12/19 07:12:45;;;;;;;;;;;;;;;;;;5030715;28;20047;-57
2022/12/19 07:15:11;;;;;;;;;;;;;;;;;;5026968;28;20273;-57
2022/12/19 07:17:37;;;;;;;;;;;;;;;;;;5029878;28;19962;-57
2022/12/19 07:20:03;;;;;;;;;;;;;;;;;;5028516;28;19913;-57
2022/12/19 07:22:29;;;;;;;;;;;;;;;;;;5029897;28;19952;-57
2022/12/19 07:24:55;;;;;;;;;;;;;;;;;;5029691;28;19932;-57
2022/12/19 07:27:21;;;;;;;;;;;;;;;;;;5029400;28;20708;-57
2022/12/19 07:29:47;;;;;;;;;;;;;;;;;;5029847;28;19913;-57
2022/12/19 07:32:13;;;;;;;;;;;;;;;;;;5030456;28;19956;-57
2022/12/19 07:34:39;;;;;;;;;;;;;;;;;;5027727;28;20007;-57
2022/12/19 07:37:05;;;;;;;;;;;;;;;;;;5028328;28;19917;-57
2022/12/19 07:39:31;;;;;;;;;;;;;;;;;;5031122;28;19921;-57
2022/12/19 07:41:57;;;;;;;;;;;;;;;;;;5029823;28;19952;-57
2022/12/19 07:44:23;;;;;;;;;;;;;;;;;;5028046;28;20276;-57
2022/12/19 07:46:49;;;;;;;;;;;;;;;;;;5030376;28;19917;-57
2022/12/19 07:49:15;;;;;;;;;;;;;;;;;;5029301;28;20035;-57
2022/12/19 07:51:41;;;;;;;;;;;;;;;;;;5026127;28;20366;-57
2022/12/19 07:54:07;;;;;;;;;;;;;;;;;;5030910;28;19957;-57
2022/12/19 07:56:33;;;;;;;;;;;;;;;;;;5030243;28;19995;-58
2022/12/19 07:58:59;;;;;;;;;;;;;;;;;;5028715;28;19976;-58
2022/12/19 08:01:24;;;;;;;;;;;;;;;;;;5030932;28;20039;-58
2022/12/19 08:03:53;;;;;;;;;;;;;;;;;;5034796;28;19909;-56
2022/12/19 08:06:19;;;;;;;;;;;;;;;;;;5032712;28;19913;-57
2022/12/19 08:08:45;;;;;;;;;;;;;;;;;;5031659;28;20396;-57
2022/12/19 08:11:11;;;;;;;;;;;;;;;;;;5031182;28;19960;-57
2022/12/19 08:13:37;;;;;;;;;;;;;;;;;;5034120;28;19929;-57
2022/12/19 08:16:03;;;;;;;;;;;;;;;;;;5032365;28;19921;-57
2022/12/19 08:18:29;;;;;;;;;;;;;;;;;;5024792;28;19951;-58
2022/12/19 08:20:55;;;;;;;;;;;;;;;;;;5032843;28;20078;-58
2022/12/19 08:23:21;;;;;;;;;;;;;;;;;;5031066;28;19913;-58
2022/12/19 08:25:47;;;;;;;;;;;;;;;;;;5034550;28;19919;-57
2022/12/19 08:28:13;;;;;;;;;;;;;;;;;;5034309;28;20405;-57
2022/12/19 08:30:39;;;;;;;;;;;;;;;;;;5033318;28;19952;-57
2022/12/19 08:33:05;;;;;;;;;;;;;;;;;;5034086;28;19996;-57
2022/12/19 08:35:31;;;;;;;;;;;;;;;;;;5032423;28;19917;-57
2022/12/19 08:37:57;;;;;;;;;;;;;;;;;;5029835;28;20384;-57
2022/12/19 08:40:23;;;;;;;;;;;;;;;;;;5032756;28;19917;-56
2022/12/19 08:42:49;;;;;;;;;;;;;;;;;;5033535;28;19913;-57
2022/12/19 08:45:15;;;;;;;;;;;;;;;;;;5028737;28;19975;-55
2022/12/19 08:47:42;;;;;;;;;;;;;;;;;;5027418;28;19971;-56
2022/12/19 08:50:08;;;;;;;;;;;;;;;;;;5029704;28;20296;-57
2022/12/19 08:52:34;;;;;;;;;;;;;;;;;;5033160;28;19916;-57
2022/12/19 08:55:00;;;;;;;;;;;;;;;;;;5032891;28;20482;-57
2022/12/19 08:57:26;;;;;;;;;;;;;;;;;;5032388;28;19967;-57
2022/12/19 08:59:52;;;;;;;;;;;;;;;;;;5032680;28;19936;-58
2022/12/19 09:02:17;;;;;;;;;;;;;;;;;;5030600;28;19990;-56
2022/12/19 09:04:43;;;;;;;;;;;;;;;;;;5032823;28;20535;-57
2022/12/19 09:07:09;;;;;;;;;;;;;;;;;;5011953;28;19963;-58
2022/12/19 09:09:35;;;;;;;;;;;;;;;;;;5031903;28;20022;-58
2022/12/19 09:12:01;;;;;;;;;;;;;;;;;;5032676;28;20395;-58
2022/12/19 09:14:27;;;;;;;;;;;;;;;;;;5030753;28;19921;-59
2022/12/19 09:16:53;;;;;;;;;;;;;;;;;;5020983;28;19923;-57
2022/12/19 09:19:19;;;;;;;;;;;;;;;;;;5032681;28;19952;-57
2022/12/19 09:21:45;;;;;;;;;;;;;;;;;;5032680;28;19996;-58
2022/12/19 09:24:11;;;;;;;;;;;;;;;;;;5031427;28;19944;-57
2022/12/19 09:26:38;;;;;;;;;;;;;;;;;;5030408;28;20380;-58
2022/12/19 09:29:04;;;;;;;;;;;;;;;;;;5033131;28;19913;-57
2022/12/19 09:31:30;;;;;;;;;;;;;;;;;;5030070;28;19956;-59
2022/12/19 09:33:56;;;;;;;;;;;;;;;;;;5031298;28;20407;-60
2022/12/19 09:36:22;;;;;;;;;;;;;;;;;;5029013;28;19924;-56
2022/12/19 09:38:48;;;;;;;;;;;;;;;;;;5030980;28;19913;-58
2022/12/19 09:41:14;;;;;;;;;;;;;;;;;;5030676;28;20018;-57
2022/12/19 09:43:40;;;;;;;;;;;;;;;;;;5032569;28;20005;-56
2022/12/19 09:46:06;;;;;;;;;;;;;;;;;;5031626;28;19920;-58
2022/12/19 09:48:32;;;;;;;;;;;;;;;;;;5023608;28;20273;-58
2022/12/19 09:50:58;;;;;;;;;;;;;;;;;;5031923;28;19909;-58
2022/12/19 09:53:24;;;;;;;;;;;;;;;;;;5012085;28;19984;-57
2022/12/19 09:55:50;;;;;;;;;;;;;;;;;;5031287;28;19913;-57
2022/12/19 09:58:15;;;;;;;;;;;;;;;;;;5030980;28;19952;-56
2022/12/19 10:00:41;;;;;;;;;;;;;;;;;;5031581;28;19913;-57
2022/12/19 10:03:07;;;;;;;;;;;;;;;;;;5030890;28;20437;-57
2022/12/19 10:05:33;;;;;;;;;;;;;;;;;;5032094;28;19954;-57
2022/12/19 10:08:00;;;;;;;;;;;;;;;;;;5030128;28;19917;-57
2022/12/19 10:10:26;;;;;;;;;;;;;;;;;;5028118;28;19972;-57
2022/12/19 10:12:52;;;;;;;;;;;;;;;;;;5030257;28;19955;-57
2022/12/19 10:15:18;;;;;;;;;;;;;;;;;;5014184;28;20004;-57
2022/12/19 10:17:44;;;;;;;;;;;;;;;;;;5031408;28;20357;-58
2022/12/19 10:20:09;;;;;;;;;;;;;;;;;;5024278;28;19924;-57
2022/12/19 10:22:35;;;;;;;;;;;;;;;;;;5030410;28;19968;-57
2022/12/19 10:25:01;;;;;;;;;;;;;;;;;;5028092;28;19913;-58
2022/12/19 10:27:27;;;;;;;;;;;;;;;;;;5030750;28;19964;-57
2022/12/19 10:29:53;;;;;;;;;;;;;;;;;;5030359;28;19935;-57
2022/12/19 10:32:19;;;;;;;;;;;;;;;;;;5030504;28;19919;-57
2022/12/19 10:34:45;;;;;;;;;;;;;;;;;;5031319;28;19913;-57
2022/12/19 10:37:11;;;;;;;;;;;;;;;;;;5029907;28;20008;-57
2022/12/19 10:39:37;;;;;;;;;;;;;;;;;;5029506;28;20003;-57
2022/12/19 10:42:03;;;;;;;;;;;;;;;;;;5030870;28;19917;-58
2022/12/19 10:44:28;;;;;;;;;;;;;;;;;;5012446;28;19917;-57
2022/12/19 10:46:54;;;;;;;;;;;;;;;;;;5030946;28;19968;-57
2022/12/19 10:49:20;;;;;;;;;;;;;;;;;;5031577;28;19913;-57
2022/12/19 10:51:46;;;;;;;;;;;;;;;;;;5029685;28;19913;-57
2022/12/19 10:54:12;;;;;;;;;;;;;;;;;;5030359;28;19945;-58
2022/12/19 10:56:38;;;;;;;;;;;;;;;;;;5031354;28;20019;-57
2022/12/19 10:59:04;;;;;;;;;;;;;;;;;;5030513;28;20043;-57
2022/12/19 11:01:30;;;;;;;;;;;;;;;;;;5027886;28;19913;-58
2022/12/19 11:03:56;;;;;;;;;;;;;;;;;;5030183;28;19925;-57
2022/12/19 11:06:22;;;;;;;;;;;;;;;;;;5030518;28;20023;-57
2022/12/19 11:08:47;;;;;;;;;;;;;;;;;;5031099;28;20410;-57
2022/12/19 11:11:13;;;;;;;;;;;;;;;;;;5029978;28;19909;-58
2022/12/19 11:13:39;;;;;;;;;;;;;;;;;;5030922;28;20371;-57
2022/12/19 11:16:05;;;;;;;;;;;;;;;;;;5029491;28;19968;-57
2022/12/19 11:18:31;;;;;;;;;;;;;;;;;;5031452;28;19951;-58
2022/12/19 11:20:57;;;;;;;;;;;;;;;;;;5028100;28;19917;-58
2022/12/19 11:23:23;;;;;;;;;;;;;;;;;;5030948;28;19913;-57
2022/12/19 11:25:49;;;;;;;;;;;;;;;;;;5031026;28;20000;-59
2022/12/19 11:28:15;;;;;;;;;;;;;;;;;;5031143;28;20008;-57
2022/12/19 11:30:41;;;;;;;;;;;;;;;;;;5032489;28;19915;-57
2022/12/19 11:33:07;;;;;;;;;;;;;;;;;;5034789;28;19914;-58
2022/12/19 11:35:33;;;;;;;;;;;;;;;;;;5034523;28;19917;-57
2022/12/19 11:37:59;;;;;;;;;;;;;;;;;;5033035;28;19948;-57
2022/12/19 11:40:25;;;;;;;;;;;;;;;;;;5032223;28;19921;-56
2022/12/19 11:42:51;;;;;;;;;;;;;;;;;;5021771;28;20023;-58
2022/12/19 11:45:17;;;;;;;;;;;;;;;;;;5028604;28;20319;-57
2022/12/19 11:47:42;;;;;;;;;;;;;;;;;;5031141;28;19944;-57
2022/12/19 11:50:08;;;;;;;;;;;;;;;;;;5025817;28;19920;-57
2022/12/19 11:52:35;;;;;;;;;;;;;;;;;;5030982;28;19917;-57
2022/12/19 11:55:00;;;;;;;;;;;;;;;;;;5027600;28;19956;-57
2022/12/19 11:57:26;;;;;;;;;;;;;;;;;;5031730;28;19967;-57
2022/12/19 11:59:52;;;;;;;;;;;;;;;;;;5031512;28;19955;-57
2022/12/19 12:02:18;;;;;;;;;;;;;;;;;;5020992;28;20364;-57
2022/12/19 12:04:44;;;;;;;;;;;;;;;;;;5027313;28;20008;-57
2022/12/19 12:07:10;;;;;;;;;;;;;;;;;;5031348;28;20015;-59
2022/12/19 12:09:36;;;;;;;;;;;;;;;;;;5031273;28;20318;-57
2022/12/19 12:12:02;;;;;;;;;;;;;;;;;;5029348;28;19917;-56
2022/12/19 12:14:28;;;;;;;;;;;;;;;;;;5031705;28;19948;-57
2022/12/19 12:16:54;;;;;;;;;;;;;;;;;;5029209;28;19955;-57
2022/12/19 12:19:20;;;;;;;;;;;;;;;;;;5032241;28;19948;-57
2022/12/19 12:21:45;;;;;;;;;;;;;;;;;;5027143;28;20023;-57
2022/12/19 12:24:11;;;;;;;;;;;;;;;;;;5023688;28;19913;-57
2022/12/19 12:26:37;;;;;;;;;;;;;;;;;;5032254;28;19983;-57
2022/12/19 12:29:03;;;;;;;;;;;;;;;;;;5031762;28;20379;-57
2022/12/19 12:31:29;;;;;;;;;;;;;;;;;;5031855;28;19921;-57
2022/12/19 12:33:55;;;;;;;;;;;;;;;;;;5033548;28;20318;-57
2022/12/19 12:36:21;;;;;;;;;;;;;;;;;;5031181;28;19947;-57
2022/12/19 12:38:47;;;;;;;;;;;;;;;;;;5032798;28;20249;-57
2022/12/19 12:41:13;;;;;;;;;;;;;;;;;;5028744;28;19925;-56
2022/12/19 12:43:38;;;;;;;;;;;;;;;;;;5032919;28;19982;-57
2022/12/19 12:46:04;;;;;;;;;;;;;;;;;;5029801;28;19963;-57
2022/12/19 12:48:31;;;;;;;;;;;;;;;;;;5032692;28;19991;-57
2022/12/19 12:50:57;;;;;;;;;;;;;;;;;;5028415;28;19961;-56
2022/12/19 12:53:22;;;;;;;;;;;;;;;;;;5027996;28;19967;-56
2022/12/19 12:55:48;;;;;;;;;;;;;;;;;;5029648;28;19957;-56
2022/12/19 12:58:14;;;;;;;;;;;;;;;;;;5031675;28;20007;-57
2022/12/19 13:00:40;;;;;;;;;;;;;;;;;;5025279;28;19962;-56
2022/12/19 13:03:06;;;;;;;;;;;;;;;;;;5030901;28;20383;-56
2022/12/19 13:05:32;;;;;;;;;;;;;;;;;;5032054;28;19913;-57
2022/12/19 13:07:58;;;;;;;;;;;;;;;;;;5030966;28;20291;-56
2022/12/19 13:10:24;;;;;;;;;;;;;;;;;;5030633;28;19924;-58
2022/12/19 13:12:59;;;;;;;;;;;;;;;;;;5022176;28;19925;-57
2022/12/19 13:15:25;;;;;;;;;;;;;;;;;;5024672;28;19953;-56
2022/12/19 13:17:51;;;;;;;;;;;;;;;;;;5029861;28;19952;-58
2022/12/19 13:20:17;;;;;;;;;;;;;;;;;;5027497;28;19948;-57
2022/12/19 13:22:43;;;;;;;;;;;;;;;;;;5030558;28;20003;-56
2022/12/19 13:25:09;;;;;;;;;;;;;;;;;;5029854;28;19921;-56
2022/12/19 13:27:35;;;;;;;;;;;;;;;;;;5026370;28;20240;-56
2022/12/19 13:30:06;;;;;;;;;;;;;;;;;;5029232;28;19920;-56
2022/12/19 13:32:31;;;;;;;;;;;;;;;;;;5032750;28;20279;-57
2022/12/19 13:34:57;;;;;;;;;;;;;;;;;;5025240;28;19917;-57
2022/12/19 13:37:23;;;;;;;;;;;;;;;;;;5028125;28;19923;-55
2022/12/19 13:39:49;;;;;;;;;;;;;;;;;;5030227;28;19991;-56
2022/12/19 13:45:00;;;;;;;;;;;;;;;;;;5025721;28;20439;-56
2022/12/19 13:47:26;;;;;;;;;;;;;;;;;;5028574;28;19975;-56
2022/12/19 13:49:52;;;;;;;;;;;;;;;;;;5029202;28;19916;-57
2022/12/19 13:52:18;;;;;;;;;;;;;;;;;;5029109;28;19917;-55
2022/12/19 13:54:44;;;;;;;;;;;;;;;;;;5030054;28;20388;-56
2022/12/19 13:57:10;;;;;;;;;;;;;;;;;;5028644;28;20357;-56
2022/12/19 13:59:35;;;;;;;;;;;;;;;;;;5032645;28;20012;-55
2022/12/19 14:02:01;;;;;;;;;;;;;;;;;;5030690;28;19913;-55
2022/12/19 14:04:28;;;;;;;;;;;;;;;;;;5026285;28;19917;-56
2022/12/19 14:06:55;;;;;;;;;;;;;;;;;;5024185;28;19964;-54
2022/12/19 14:09:21;;;;;;;;;;;;;;;;;;5030366;28;19913;-55
2022/12/19 14:11:47;;;;;;;;;;;;;;;;;;5029137;28;19913;-55
2022/12/19 14:16:58;;;;;;;;;;;;;;;;;;5028790;28;20303;-55
2022/12/19 14:19:24;;;;;;;;;;;;;;;;;;5029910;28;19920;-55
2022/12/19 14:21:50;;;;;;;;;;;;;;;;;;5016848;28;20039;-53
2022/12/19 14:24:16;;;;;;;;;;;;;;;;;;5028644;28;19959;-54
2022/12/19 14:26:42;;;;;;;;;;;;;;;;;;5030859;28;19913;-55
2022/12/19 14:29:08;;;;;;;;;;;;;;;;;;5029172;28;19913;-55
2022/12/19 14:31:34;;;;;;;;;;;;;;;;;;5012404;28;20406;-53
2022/12/19 14:34:00;;;;;;;;;;;;;;;;;;5030022;28;20834;-56
2022/12/19 14:36:26;;;;;;;;;;;;;;;;;;5031054;28;19964;-54
2022/12/19 14:38:52;;;;;;;;;;;;;;;;;;5030417;28;19963;-55
2022/12/19 14:43:37;;;;;;;;;;;;;;;;;;5025831;28;19921;-55
2022/12/19 14:44:03;;;;;;;;;;;;;;;;;;5029093;28;19917;-55
2022/12/19 14:46:32;;;;;;;;;;;;;;;;;;5028681;28;19951;-56
2022/12/19 14:48:58;;;;;;;;;;;;;;;;;;5028740;28;20335;-56
2022/12/19 14:51:23;;;;;;;;;;;;;;;;;;5025930;28;20010;-54
2022/12/19 14:53:49;;;;;;;;;;;;;;;;;;5031017;28;19945;-54
2022/12/19 14:56:16;;;;;;;;;;;;;;;;;;5029085;28;19917;-54
2022/12/19 14:58:42;;;;;;;;;;;;;;;;;;5024082;28;19971;-54
2022/12/19 15:01:08;;;;;;;;;;;;;;;;;;5029096;28;19968;-53
2022/12/19 15:03:34;;;;;;;;;;;;;;;;;;5027208;28;19913;-55
2022/12/19 15:06:00;;;;;;;;;;;;;;;;;;5030935;28;20338;-55
2022/12/19 15:08:25;;;;;;;;;;;;;;;;;;5027063;28;19925;-55
2022/12/19 15:10:51;;;;;;;;;;;;;;;;;;5029115;28;19914;-55
2022/12/19 15:13:21;;;;;;;;;;;;;;;;;;5023656;28;20304;-55
2022/12/19 15:15:47;;;;;;;;;;;;;;;;;;5029484;28;19917;-55
2022/12/19 15:18:13;;;;;;;;;;;;;;;;;;5026392;28;19972;-55
2022/12/19 15:20:39;;;;;;;;;;;;;;;;;;5026391;28;20403;-55
2022/12/19 15:23:05;;;;;;;;;;;;;;;;;;5021928;28;19970;-55
2022/12/19 15:25:31;;;;;;;;;;;;;;;;;;5004849;28;20261;-54
2022/12/19 15:27:57;;;;;;;;;;;;;;;;;;5029199;28;20345;-55
2022/12/19 15:30:23;;;;;;;;;;;;;;;;;;5029356;28;19990;-56
2022/12/19 15:32:48;;;;;;;;;;;;;;;;;;5028773;28;19913;-53
2022/12/19 15:35:14;;;;;;;;;;;;;;;;;;5029334;28;20365;-53
2022/12/19 15:37:40;;;;;;;;;;;;;;;;;;5028771;28;19945;-54
2022/12/19 15:40:06;;;;;;;;;;;;;;;;;;5024215;28;20359;-55
2022/12/19 15:42:33;;;;;;;;;;;;;;;;;;5025091;28;20381;-53
2022/12/19 15:44:59;;;;;;;;;;;;;;;;;;5029185;28;19913;-51
2022/12/19 15:47:25;;;;;;;;;;;;;;;;;;5028212;28;19949;-52
2022/12/19 15:49:51;;;;;;;;;;;;;;;;;;5026130;28;20380;-54
2022/12/19 15:52:17;;;;;;;;;;;;;;;;;;5026593;28;19913;-55
2022/12/19 15:54:43;;;;;;;;;;;;;;;;;;5021356;28;20004;-52
2022/12/19 15:57:09;;;;;;;;;;;;;;;;;;5023362;28;20412;-54
2022/12/19 15:59:35;;;;;;;;;;;;;;;;;;5022479;28;19917;-54
2022/12/19 16:02:01;;;;;;;;;;;;;;;;;;5028244;28;19936;-51
2022/12/19 16:04:27;;;;;;;;;;;;;;;;;;5025698;28;20012;-56
2022/12/19 16:06:53;;;;;;;;;;;;;;;;;;5027358;28;19921;-56
2022/12/19 16:09:19;;;;;;;;;;;;;;;;;;5027148;28;19964;-54
2022/12/19 16:11:44;;;;;;;;;;;;;;;;;;5012760;28;19910;-54
2022/12/19 16:14:10;;;;;;;;;;;;;;;;;;5027378;28;20368;-55
2022/12/19 16:16:36;;;;;;;;;;;;;;;;;;5031697;28;19909;-54
2022/12/19 16:19:02;;;;;;;;;;;;;;;;;;5033421;28;20022;-54
2022/12/19 16:21:28;;;;;;;;;;;;;;;;;;5026531;28;20063;-55
2022/12/19 16:23:54;;;;;;;;;;;;;;;;;;5028152;28;19945;-53
2022/12/19 16:26:20;;;;;;;;;;;;;;;;;;5034109;28;20038;-54
2022/12/19 16:28:46;;;;;;;;;;;;;;;;;;5034106;28;19968;-54
2022/12/19 16:31:12;;;;;;;;;;;;;;;;;;5030053;28;19914;-53
2022/12/19 16:33:37;;;;;;;;;;;;;;;;;;5032545;28;20052;-55
2022/12/19 16:36:03;;;;;;;;;;;;;;;;;;5032763;28;20284;-54
2022/12/19 16:38:29;;;;;;;;;;;;;;;;;;5032126;28;19920;-54
2022/12/19 16:40:56;;;;;;;;;;;;;;;;;;5032358;28;20008;-53
2022/12/19 16:43:21;;;;;;;;;;;;;;;;;;5034202;28;20361;-54
2022/12/19 16:45:47;;;;;;;;;;;;;;;;;;5032391;28;19923;-53
2022/12/19 16:48:13;;;;;;;;;;;;;;;;;;5018023;28;19917;-53